createdAt,value
2022-11-01T00:00:39.001Z,1010.31
2022-11-01T00:01:39.025Z,1010.29
2022-11-01T00:02:39.051Z,1010.28
2022-11-01T00:03:38.973Z,1010.23
2022-11-01T00:04:38.946Z,1010.15
2022-11-01T00:05:38.979Z,1010.12
2022-11-01T00:06:38.927Z,1010.10
2022-11-01T00:07:38.926Z,1010.04
2022-11-01T00:08:38.910Z,1010.05
2022-11-01T00:09:38.903Z,1009.97
2022-11-01T00:10:38.888Z,1009.90
2022-11-01T00:11:38.878Z,1009.87
2022-11-01T00:12:38.876Z,1009.85
2022-11-01T00:13:38.858Z,1009.78
2022-11-01T00:14:38.856Z,1009.76
2022-11-01T00:15:38.867Z,1009.75
2022-11-01T00:16:38.828Z,1009.74
2022-11-01T00:17:38.868Z,1009.74
2022-11-01T00:18:38.800Z,1009.76
2022-11-01T00:19:38.790Z,1009.73
2022-11-01T00:20:38.776Z,1009.77
2022-11-01T00:21:38.788Z,1009.78
2022-11-01T00:22:38.775Z,1009.81
2022-11-01T00:23:38.736Z,1009.80
2022-11-01T00:24:38.741Z,1009.78
2022-11-01T00:25:38.759Z,1009.82
2022-11-01T00:26:38.777Z,1009.77
2022-11-01T00:27:38.713Z,1009.75
2022-11-01T00:28:38.697Z,1009.73
2022-11-01T00:29:38.692Z,1009.72
2022-11-01T00:30:38.684Z,1009.71
2022-11-01T00:31:38.654Z,1009.76
2022-11-01T00:32:38.652Z,1009.72
2022-11-01T00:33:38.667Z,1009.69
2022-11-01T00:34:38.629Z,1009.65
2022-11-01T00:35:38.606Z,1009.70
2022-11-01T00:36:38.604Z,1009.83
2022-11-01T00:37:38.590Z,1009.97
2022-11-01T00:38:38.596Z,1010.03
2022-11-01T00:39:38.564Z,1009.99
2022-11-01T00:40:38.567Z,1009.86
2022-11-01T00:41:38.543Z,1009.79
2022-11-01T00:42:38.534Z,1009.66
2022-11-01T00:43:38.526Z,1009.66
2022-11-01T00:44:38.527Z,1009.72
2022-11-01T00:45:38.499Z,1009.81
2022-11-01T00:46:38.523Z,1009.87
2022-11-01T00:47:38.478Z,1009.88
2022-11-01T00:48:38.468Z,1009.84
2022-11-01T00:49:38.466Z,1009.81
2022-11-01T00:50:38.448Z,1009.82
2022-11-01T00:51:38.449Z,1009.74
2022-11-01T00:52:38.437Z,1009.74
2022-11-01T00:53:38.418Z,1009.71
2022-11-01T00:54:38.413Z,1009.67
2022-11-01T00:55:38.386Z,1009.69
2022-11-01T00:56:38.382Z,1009.69
2022-11-01T00:57:38.367Z,1009.71
2022-11-01T00:58:38.359Z,1009.67
2022-11-01T00:59:40.943Z,1009.65
2022-11-01T01:00:38.351Z,1009.63
2022-11-01T01:01:38.489Z,1009.63
2022-11-01T01:02:38.346Z,1009.59
2022-11-01T01:03:38.331Z,1009.53
2022-11-01T01:04:38.327Z,1009.48
2022-11-01T01:05:38.278Z,1009.47
2022-11-01T01:06:38.280Z,1009.44
2022-11-01T01:07:38.263Z,1009.38
2022-11-01T01:08:38.253Z,1009.34
2022-11-01T01:09:38.237Z,1009.30
2022-11-01T01:10:38.236Z,1009.17
2022-11-01T01:11:38.219Z,1009.23
2022-11-01T01:12:38.209Z,1009.19
2022-11-01T01:13:38.202Z,1009.22
2022-11-01T01:14:38.197Z,1009.23
2022-11-01T01:15:38.429Z,1009.22
2022-11-01T01:16:38.211Z,1009.18
2022-11-01T01:17:38.149Z,1009.19
2022-11-01T01:18:38.138Z,1009.17
2022-11-01T01:19:38.134Z,1009.14
2022-11-01T01:20:38.137Z,1009.05
2022-11-01T01:21:38.113Z,1009.00
2022-11-01T01:22:38.101Z,1008.94
2022-11-01T01:23:38.082Z,1008.89
2022-11-01T01:24:38.084Z,1008.81
2022-11-01T01:25:38.082Z,1008.78
2022-11-01T01:26:38.062Z,1008.78
2022-11-01T01:27:38.043Z,1008.86
2022-11-01T01:28:41.877Z,1008.99
2022-11-01T01:29:38.033Z,1009.02
2022-11-01T01:30:38.024Z,1009.11
2022-11-01T01:31:38.001Z,1009.12
2022-11-01T01:32:37.987Z,1009.21
2022-11-01T01:33:37.987Z,1009.28
2022-11-01T01:34:37.967Z,1009.37
2022-11-01T01:35:37.963Z,1009.39
2022-11-01T01:36:37.956Z,1009.43
2022-11-01T01:37:37.933Z,1009.42
2022-11-01T01:38:37.924Z,1009.53
2022-11-01T01:39:37.915Z,1009.52
2022-11-01T01:40:37.920Z,1009.56
2022-11-01T01:41:37.885Z,1009.53
2022-11-01T01:42:37.885Z,1009.49
2022-11-01T01:43:37.865Z,1009.50
2022-11-01T01:44:37.862Z,1009.47
2022-11-01T01:45:37.863Z,1009.45
2022-11-01T01:46:37.843Z,1009.45
2022-11-01T01:47:37.828Z,1009.43
2022-11-01T01:48:37.815Z,1009.37
2022-11-01T01:49:41.557Z,1009.35
2022-11-01T01:50:37.806Z,1009.33
2022-11-01T01:51:37.814Z,1009.32
2022-11-01T01:52:37.778Z,1009.33
2022-11-01T01:53:37.767Z,1009.36
2022-11-01T01:54:37.750Z,1009.32
2022-11-01T01:55:37.742Z,1009.29
2022-11-01T01:56:37.746Z,1009.24
2022-11-01T01:57:37.723Z,1009.22
2022-11-01T01:58:37.717Z,1009.25
2022-11-01T01:59:37.699Z,1009.21
2022-11-01T02:00:37.686Z,1009.16
2022-11-01T02:01:37.843Z,1009.12
2022-11-01T02:02:37.672Z,1009.12
2022-11-01T02:03:37.655Z,1009.09
2022-11-01T02:04:37.638Z,1009.01
2022-11-01T02:05:37.626Z,1008.98
2022-11-01T02:06:37.624Z,1008.96
2022-11-01T02:07:37.610Z,1008.95
2022-11-01T02:08:37.604Z,1008.89
2022-11-01T02:09:37.593Z,1008.88
2022-11-01T02:10:37.581Z,1008.88
2022-11-01T02:11:37.581Z,1008.86
2022-11-01T02:12:37.561Z,1008.80
2022-11-01T02:13:37.564Z,1008.78
2022-11-01T02:14:37.566Z,1008.76
2022-11-01T02:15:37.533Z,1008.73
2022-11-01T02:16:37.520Z,1008.75
2022-11-01T02:17:37.504Z,1008.75
2022-11-01T02:18:37.489Z,1008.76
2022-11-01T02:19:37.490Z,1008.74
2022-11-01T02:20:37.467Z,1008.74
2022-11-01T02:21:37.478Z,1008.76
2022-11-01T02:22:37.476Z,1008.74
2022-11-01T02:23:37.438Z,1008.75
2022-11-01T02:24:37.435Z,1008.71
2022-11-01T02:25:37.417Z,1008.70
2022-11-01T02:26:37.421Z,1008.68
2022-11-01T02:27:37.395Z,1008.55
2022-11-01T02:28:37.388Z,1008.55
2022-11-01T02:29:37.377Z,1008.50
2022-11-01T02:30:37.363Z,1008.49
2022-11-01T02:31:37.365Z,1008.51
2022-11-01T02:32:37.344Z,1008.48
2022-11-01T02:33:37.340Z,1008.47
2022-11-01T02:34:37.315Z,1008.45
2022-11-01T02:35:37.309Z,1008.43
2022-11-01T02:36:37.298Z,1008.40
2022-11-01T02:37:37.297Z,1008.38
2022-11-01T02:38:37.279Z,1008.39
2022-11-01T02:39:37.260Z,1008.34
2022-11-01T02:40:37.255Z,1008.33
2022-11-01T02:41:37.245Z,1008.32
2022-11-01T02:42:37.244Z,1008.30
2022-11-01T02:43:37.229Z,1008.34
2022-11-01T02:44:37.213Z,1008.33
2022-11-01T02:45:37.199Z,1008.34
2022-11-01T02:46:37.182Z,1008.33
2022-11-01T02:47:37.187Z,1008.33
2022-11-01T02:48:37.173Z,1008.26
2022-11-01T02:49:37.164Z,1008.24
2022-11-01T02:50:37.148Z,1008.25
2022-11-01T02:51:37.136Z,1008.29
2022-11-01T02:52:37.137Z,1008.27
2022-11-01T02:53:37.120Z,1008.28
2022-11-01T02:54:37.096Z,1008.27
2022-11-01T02:55:37.165Z,1008.31
2022-11-01T02:56:37.074Z,1008.31
2022-11-01T02:57:37.078Z,1008.31
2022-11-01T02:58:37.067Z,1008.31
2022-11-01T02:59:37.051Z,1008.29
2022-11-01T03:00:37.034Z,1008.35
2022-11-01T03:01:37.128Z,1008.29
2022-11-01T03:02:37.010Z,1008.36
2022-11-01T03:03:37.015Z,1008.39
2022-11-01T03:04:36.989Z,1008.41
2022-11-01T03:05:36.989Z,1008.46
2022-11-01T03:06:36.975Z,1008.48
2022-11-01T03:07:36.960Z,1008.50
2022-11-01T03:08:36.960Z,1008.52
2022-11-01T03:09:36.948Z,1008.50
2022-11-01T03:10:36.933Z,1008.47
2022-11-01T03:11:36.921Z,1008.45
2022-11-01T03:12:36.910Z,1008.46
2022-11-01T03:13:36.909Z,1008.48
2022-11-01T03:14:36.881Z,1008.47
2022-11-01T03:15:36.872Z,1008.45
2022-11-01T03:16:36.857Z,1008.43
2022-11-01T03:17:36.857Z,1008.42
2022-11-01T03:18:36.874Z,1008.41
2022-11-01T03:19:36.837Z,1008.42
2022-11-01T03:20:36.820Z,1008.40
2022-11-01T03:21:36.806Z,1008.39
2022-11-01T03:22:36.792Z,1008.39
2022-11-01T03:23:36.796Z,1008.40
2022-11-01T03:24:36.778Z,1008.42
2022-11-01T03:25:36.764Z,1008.40
2022-11-01T03:26:36.752Z,1008.44
2022-11-01T03:27:36.735Z,1008.46
2022-11-01T03:28:36.735Z,1008.47
2022-11-01T03:29:36.729Z,1008.48
2022-11-01T03:30:36.709Z,1008.54
2022-11-01T03:31:36.701Z,1008.54
2022-11-01T03:32:36.684Z,1008.54
2022-11-01T03:33:36.678Z,1008.52
2022-11-01T03:34:36.688Z,1008.51
2022-11-01T03:35:36.666Z,1008.46
2022-11-01T03:36:36.638Z,1008.49
2022-11-01T03:37:36.642Z,1008.38
2022-11-01T03:38:36.612Z,1008.44
2022-11-01T03:39:36.612Z,1008.40
2022-11-01T03:40:36.601Z,1008.42
2022-11-01T03:41:36.589Z,1008.42
2022-11-01T03:42:36.577Z,1008.44
2022-11-01T03:43:36.558Z,1008.43
2022-11-01T03:44:36.551Z,1008.41
2022-11-01T03:45:36.556Z,1008.40
2022-11-01T03:46:36.529Z,1008.41
2022-11-01T03:47:36.517Z,1008.40
2022-11-01T03:48:36.508Z,1008.38
2022-11-01T03:49:36.496Z,1008.36
2022-11-01T03:50:36.494Z,1008.35
2022-11-01T03:51:36.488Z,1008.33
2022-11-01T03:52:36.457Z,1008.35
2022-11-01T03:53:36.459Z,1008.32
2022-11-01T03:54:36.441Z,1008.32
2022-11-01T03:55:36.438Z,1008.32
2022-11-01T03:56:36.421Z,1008.26
2022-11-01T03:57:36.407Z,1008.27
2022-11-01T03:58:36.391Z,1008.32
2022-11-01T03:59:36.389Z,1008.33
2022-11-01T04:00:36.504Z,1008.31
2022-11-01T04:01:36.608Z,1008.30
2022-11-01T04:02:36.350Z,1008.30
2022-11-01T04:03:36.356Z,1008.31
2022-11-01T04:04:36.324Z,1008.31
2022-11-01T04:05:36.361Z,1008.27
2022-11-01T04:06:36.315Z,1008.21
2022-11-01T04:07:36.298Z,1008.17
2022-11-01T04:08:36.292Z,1008.20
2022-11-01T04:09:36.275Z,1008.20
2022-11-01T04:10:36.267Z,1008.17
2022-11-01T04:11:36.265Z,1008.17
2022-11-01T04:12:36.246Z,1008.21
2022-11-01T04:13:36.235Z,1008.17
2022-11-01T04:14:36.218Z,1008.17
2022-11-01T04:15:36.217Z,1008.16
2022-11-01T04:16:36.202Z,1008.18
2022-11-01T04:17:36.191Z,1008.19
2022-11-01T04:18:36.196Z,1008.25
2022-11-01T04:19:36.172Z,1008.19
2022-11-01T04:20:36.151Z,1008.22
2022-11-01T04:21:36.162Z,1008.26
2022-11-01T04:22:36.143Z,1008.30
2022-11-01T04:23:36.123Z,1008.34
2022-11-01T04:24:36.114Z,1008.38
2022-11-01T04:25:36.097Z,1008.46
2022-11-01T04:26:36.090Z,1008.47
2022-11-01T04:27:36.094Z,1008.44
2022-11-01T04:28:36.072Z,1008.46
2022-11-01T04:29:36.064Z,1008.47
2022-11-01T04:30:36.050Z,1008.46
2022-11-01T04:31:36.029Z,1008.44
2022-11-01T04:32:36.066Z,1008.41
2022-11-01T04:33:36.013Z,1008.36
2022-11-01T04:34:35.996Z,1008.34
2022-11-01T04:35:35.987Z,1008.31
2022-11-01T04:36:35.975Z,1008.28
2022-11-01T04:37:35.970Z,1008.27
2022-11-01T04:38:35.970Z,1008.23
2022-11-01T04:39:35.941Z,1008.24
2022-11-01T04:40:35.936Z,1008.21
2022-11-01T04:41:35.918Z,1008.19
2022-11-01T04:42:35.911Z,1008.25
2022-11-01T04:43:35.911Z,1008.29
2022-11-01T04:44:35.906Z,1008.32
2022-11-01T04:45:35.872Z,1008.33
2022-11-01T04:46:35.868Z,1008.31
2022-11-01T04:47:35.854Z,1008.28
2022-11-01T04:48:35.850Z,1008.25
2022-11-01T04:49:35.838Z,1008.25
2022-11-01T04:50:35.820Z,1008.25
2022-11-01T04:51:35.853Z,1008.24
2022-11-01T04:52:35.802Z,1008.21
2022-11-01T04:53:35.798Z,1008.23
2022-11-01T04:54:35.785Z,1008.21
2022-11-01T04:55:35.765Z,1008.25
2022-11-01T04:56:35.763Z,1008.21
2022-11-01T04:57:35.743Z,1008.17
2022-11-01T04:58:36.081Z,1008.16
2022-11-01T04:59:35.723Z,1008.16
2022-11-01T05:00:35.746Z,1008.12
2022-11-01T05:01:35.864Z,1008.16
2022-11-01T05:02:35.685Z,1008.12
2022-11-01T05:03:35.684Z,1008.08
2022-11-01T05:04:35.689Z,1008.08
2022-11-01T05:05:35.652Z,1008.10
2022-11-01T05:06:35.645Z,1008.11
2022-11-01T05:07:35.630Z,1008.13
2022-11-01T05:08:35.631Z,1008.13
2022-11-01T05:09:35.607Z,1008.13
2022-11-01T05:10:35.594Z,1008.16
2022-11-01T05:11:35.590Z,1008.13
2022-11-01T05:12:35.579Z,1008.10
2022-11-01T05:13:35.583Z,1008.06
2022-11-01T05:14:35.555Z,1008.03
2022-11-01T05:15:39.946Z,1008.03
2022-11-01T05:16:35.534Z,1007.99
2022-11-01T05:17:35.528Z,1007.99
2022-11-01T05:18:35.524Z,1008.01
2022-11-01T05:19:35.497Z,1008.05
2022-11-01T05:20:35.494Z,1008.00
2022-11-01T05:21:35.476Z,1007.91
2022-11-01T05:22:35.493Z,1007.80
2022-11-01T05:23:35.469Z,1007.77
2022-11-01T05:24:35.513Z,1007.81
2022-11-01T05:25:38.059Z,1007.78
2022-11-01T05:26:35.421Z,1007.77
2022-11-01T05:27:35.419Z,1007.88
2022-11-01T05:28:35.414Z,1007.97
2022-11-01T05:29:35.404Z,1007.97
2022-11-01T05:30:35.381Z,1007.90
2022-11-01T05:31:35.381Z,1007.83
2022-11-01T05:32:35.365Z,1007.83
2022-11-01T05:33:35.347Z,1007.90
2022-11-01T05:34:35.427Z,1007.88
2022-11-01T05:35:35.335Z,1007.81
2022-11-01T05:36:35.310Z,1007.86
2022-11-01T05:37:35.303Z,1007.89
2022-11-01T05:38:35.295Z,1007.90
2022-11-01T05:39:35.319Z,1007.89
2022-11-01T05:40:35.278Z,1007.89
2022-11-01T05:41:35.294Z,1007.93
2022-11-01T05:42:35.247Z,1007.97
2022-11-01T05:43:35.239Z,1007.98
2022-11-01T05:44:35.257Z,1007.95
2022-11-01T05:45:35.222Z,1007.91
2022-11-01T05:46:35.213Z,1007.91
2022-11-01T05:47:35.190Z,1007.88
2022-11-01T05:48:35.185Z,1007.87
2022-11-01T05:49:35.176Z,1007.90
2022-11-01T05:50:35.183Z,1007.90
2022-11-01T05:51:35.153Z,1007.93
2022-11-01T05:52:35.143Z,1007.90
2022-11-01T05:53:35.154Z,1007.86
2022-11-01T05:54:35.116Z,1007.91
2022-11-01T05:55:35.122Z,1008.01
2022-11-01T05:56:35.086Z,1007.95
2022-11-01T05:57:35.150Z,1007.86
2022-11-01T05:58:35.080Z,1007.90
2022-11-01T05:59:35.061Z,1008.10
2022-11-01T06:00:35.067Z,1008.22
2022-11-01T06:01:35.106Z,1008.15
2022-11-01T06:02:35.096Z,1007.96
2022-11-01T06:03:35.014Z,1007.91
2022-11-01T06:04:35.014Z,1008.01
2022-11-01T06:05:35.007Z,1008.11
2022-11-01T06:06:34.986Z,1008.15
2022-11-01T06:07:34.971Z,1008.14
2022-11-01T06:08:34.968Z,1008.16
2022-11-01T06:09:34.943Z,1008.08
2022-11-01T06:10:34.955Z,1008.12
2022-11-01T06:11:40.599Z,1008.15
2022-11-01T06:12:34.931Z,1008.08
2022-11-01T06:13:34.903Z,1007.96
2022-11-01T06:15:37.281Z,1007.88
2022-11-01T06:16:34.875Z,1007.94
2022-11-01T06:17:34.862Z,1008.01
2022-11-01T06:18:34.844Z,1007.90
2022-11-01T06:19:34.838Z,1007.89
2022-11-01T06:20:34.835Z,1007.89
2022-11-01T06:21:34.820Z,1008.03
2022-11-01T06:22:34.822Z,1008.04
2022-11-01T06:23:34.787Z,1007.90
2022-11-01T06:24:34.788Z,1007.83
2022-11-01T06:25:35.008Z,1007.82
2022-11-01T06:26:34.769Z,1007.87
2022-11-01T06:27:34.744Z,1007.81
2022-11-01T06:28:34.744Z,1007.76
2022-11-01T06:29:34.726Z,1007.83
2022-11-01T06:30:34.736Z,1007.88
2022-11-01T06:31:34.715Z,1007.81
2022-11-01T06:32:34.728Z,1007.86
2022-11-01T06:33:34.729Z,1007.87
2022-11-01T06:34:34.677Z,1007.88
2022-11-01T06:35:34.694Z,1007.89
2022-11-01T06:36:34.653Z,1007.96
2022-11-01T06:37:34.656Z,1008.04
2022-11-01T06:38:34.633Z,1008.08
2022-11-01T06:39:34.614Z,1008.04
2022-11-01T06:40:34.615Z,1008.09
2022-11-01T06:41:34.604Z,1008.11
2022-11-01T06:42:34.601Z,1008.16
2022-11-01T06:43:34.571Z,1008.12
2022-11-01T06:44:34.572Z,1008.10
2022-11-01T06:45:34.550Z,1008.05
2022-11-01T06:46:34.557Z,1008.05
2022-11-01T06:47:34.555Z,1008.09
2022-11-01T06:48:34.522Z,1008.12
2022-11-01T06:49:34.516Z,1008.11
2022-11-01T06:50:34.494Z,1008.12
2022-11-01T06:51:34.500Z,1008.03
2022-11-01T06:52:34.477Z,1007.97
2022-11-01T06:53:34.466Z,1008.04
2022-11-01T06:54:34.463Z,1008.04
2022-11-01T06:55:34.449Z,1007.99
2022-11-01T06:56:34.449Z,1007.98
2022-11-01T06:57:34.420Z,1007.98
2022-11-01T06:58:34.412Z,1008.00
2022-11-01T06:59:34.395Z,1008.03
2022-11-01T07:00:34.388Z,1008.08
2022-11-01T07:01:34.469Z,1008.07
2022-11-01T07:02:34.543Z,1008.05
2022-11-01T07:03:34.353Z,1008.11
2022-11-01T07:04:34.363Z,1008.05
2022-11-01T07:05:37.010Z,1008.12
2022-11-01T07:06:34.332Z,1008.16
2022-11-01T07:07:34.302Z,1008.16
2022-11-01T07:08:34.304Z,1008.15
2022-11-01T07:09:34.278Z,1008.14
2022-11-01T07:10:34.307Z,1008.19
2022-11-01T07:11:34.272Z,1008.23
2022-11-01T07:12:34.248Z,1008.24
2022-11-01T07:13:34.251Z,1008.25
2022-11-01T07:14:34.230Z,1008.27
2022-11-01T07:15:34.223Z,1008.21
2022-11-01T07:16:34.217Z,1008.22
2022-11-01T07:17:34.202Z,1008.24
2022-11-01T07:18:34.209Z,1008.21
2022-11-01T07:19:34.171Z,1008.21
2022-11-01T07:20:34.199Z,1008.23
2022-11-01T07:21:34.155Z,1008.25
2022-11-01T07:22:34.147Z,1008.27
2022-11-01T07:23:34.131Z,1008.24
2022-11-01T07:24:34.137Z,1008.26
2022-11-01T07:25:34.100Z,1008.24
2022-11-01T07:26:34.102Z,1008.23
2022-11-01T07:27:34.085Z,1008.35
2022-11-01T07:28:34.078Z,1008.46
2022-11-01T07:29:34.066Z,1008.53
2022-11-01T07:30:34.052Z,1008.46
2022-11-01T07:31:34.041Z,1008.42
2022-11-01T07:32:37.622Z,1008.40
2022-11-01T07:33:34.028Z,1008.43
2022-11-01T07:34:34.035Z,1008.46
2022-11-01T07:35:33.990Z,1008.56
2022-11-01T07:36:33.996Z,1008.67
2022-11-01T07:37:33.981Z,1008.74
2022-11-01T07:38:33.961Z,1008.66
2022-11-01T07:39:33.962Z,1008.66
2022-11-01T07:40:33.942Z,1008.66
2022-11-01T07:41:33.950Z,1008.62
2022-11-01T07:42:33.921Z,1008.62
2022-11-01T07:43:33.902Z,1008.64
2022-11-01T07:44:33.925Z,1008.68
2022-11-01T07:45:33.887Z,1008.69
2022-11-01T07:46:33.886Z,1008.68
2022-11-01T07:47:33.866Z,1008.63
2022-11-01T07:48:33.861Z,1008.64
2022-11-01T07:49:33.857Z,1008.66
2022-11-01T07:50:33.845Z,1008.72
2022-11-01T07:51:33.824Z,1008.82
2022-11-01T07:52:33.816Z,1008.87
2022-11-01T07:53:33.810Z,1008.88
2022-11-01T07:54:33.785Z,1008.88
2022-11-01T07:55:33.796Z,1008.85
2022-11-01T07:56:33.773Z,1008.81
2022-11-01T07:57:33.759Z,1008.84
2022-11-01T07:58:33.748Z,1008.85
2022-11-01T07:59:33.731Z,1008.85
2022-11-01T08:01:33.915Z,1008.94
2022-11-01T08:02:33.750Z,1008.92
2022-11-01T08:03:33.687Z,1008.91
2022-11-01T08:04:33.695Z,1008.94
2022-11-01T08:05:33.668Z,1008.99
2022-11-01T08:06:33.667Z,1009.04
2022-11-01T08:07:33.647Z,1009.03
2022-11-01T08:08:33.636Z,1009.00
2022-11-01T08:09:33.636Z,1008.99
2022-11-01T08:10:33.620Z,1008.98
2022-11-01T08:11:33.621Z,1009.03
2022-11-01T08:12:33.599Z,1009.01
2022-11-01T08:13:33.602Z,1008.93
2022-11-01T08:14:33.570Z,1008.92
2022-11-01T08:15:33.563Z,1008.80
2022-11-01T08:16:33.582Z,1008.80
2022-11-01T08:17:33.544Z,1008.83
2022-11-01T08:18:33.530Z,1008.88
2022-11-01T08:19:33.517Z,1008.88
2022-11-01T08:20:33.506Z,1008.89
2022-11-01T08:21:33.501Z,1008.90
2022-11-01T08:22:33.521Z,1008.92
2022-11-01T08:23:33.466Z,1008.90
2022-11-01T08:24:33.474Z,1008.88
2022-11-01T08:25:33.451Z,1008.93
2022-11-01T08:26:33.466Z,1008.86
2022-11-01T08:27:34.563Z,1008.83
2022-11-01T08:28:33.434Z,1008.82
2022-11-01T08:29:33.407Z,1008.82
2022-11-01T08:30:33.393Z,1008.80
2022-11-01T08:31:33.385Z,1008.79
2022-11-01T08:32:33.390Z,1008.86
2022-11-01T08:33:33.367Z,1008.87
2022-11-01T08:34:33.348Z,1008.95
2022-11-01T08:35:33.343Z,1008.97
2022-11-01T08:36:33.330Z,1008.98
2022-11-01T08:37:33.333Z,1008.96
2022-11-01T08:38:33.313Z,1008.98
2022-11-01T08:39:33.292Z,1008.98
2022-11-01T08:40:33.301Z,1008.87
2022-11-01T08:41:37.135Z,1008.86
2022-11-01T08:42:33.278Z,1008.88
2022-11-01T08:43:37.982Z,1008.83
2022-11-01T08:44:33.256Z,1008.87
2022-11-01T08:45:33.230Z,1008.82
2022-11-01T08:46:33.213Z,1008.82
2022-11-01T08:47:33.223Z,1008.83
2022-11-01T08:48:33.202Z,1008.79
2022-11-01T08:49:33.185Z,1008.81
2022-11-01T08:50:33.173Z,1008.82
2022-11-01T08:51:33.167Z,1008.82
2022-11-01T08:52:33.167Z,1008.78
2022-11-01T08:53:33.148Z,1008.80
2022-11-01T08:54:33.129Z,1008.78
2022-11-01T08:55:37.377Z,1008.75
2022-11-01T08:56:33.100Z,1008.81
2022-11-01T08:57:33.127Z,1008.80
2022-11-01T08:58:33.079Z,1008.83
2022-11-01T08:59:33.077Z,1008.89
2022-11-01T09:00:33.064Z,1008.95
2022-11-01T09:01:33.254Z,1008.95
2022-11-01T09:02:33.118Z,1008.89
2022-11-01T09:03:33.045Z,1008.94
2022-11-01T09:04:33.021Z,1008.93
2022-11-01T09:05:33.002Z,1008.94
2022-11-01T09:06:36.247Z,1008.97
2022-11-01T09:07:33.008Z,1008.99
2022-11-01T09:08:32.977Z,1008.98
2022-11-01T09:09:32.967Z,1008.99
2022-11-01T09:10:32.947Z,1008.97
2022-11-01T09:11:32.948Z,1008.96
2022-11-01T09:12:32.990Z,1008.95
2022-11-01T09:13:32.941Z,1008.90
2022-11-01T09:14:32.909Z,1008.82
2022-11-01T09:15:32.906Z,1008.79
2022-11-01T09:16:32.895Z,1008.77
2022-11-01T09:17:32.873Z,1008.78
2022-11-01T09:18:32.874Z,1008.79
2022-11-01T09:19:32.855Z,1008.83
2022-11-01T09:20:32.843Z,1008.83
2022-11-01T09:21:32.840Z,1008.84
2022-11-01T09:22:32.816Z,1008.85
2022-11-01T09:23:32.829Z,1008.84
2022-11-01T09:24:32.793Z,1008.78
2022-11-01T09:25:32.803Z,1008.69
2022-11-01T09:26:32.775Z,1008.69
2022-11-01T09:27:32.775Z,1008.69
2022-11-01T09:28:33.936Z,1008.70
2022-11-01T09:30:32.771Z,1008.80
2022-11-01T09:31:32.721Z,1008.79
2022-11-01T09:32:32.714Z,1008.75
2022-11-01T09:33:32.712Z,1008.78
2022-11-01T09:34:32.694Z,1008.84
2022-11-01T09:35:32.690Z,1008.86
2022-11-01T09:36:32.663Z,1008.90
2022-11-01T09:37:32.669Z,1009.03
2022-11-01T09:38:32.649Z,1009.06
2022-11-01T09:39:32.634Z,1009.21
2022-11-01T09:40:32.617Z,1009.20
2022-11-01T09:41:32.620Z,1009.27
2022-11-01T09:42:32.687Z,1009.22
2022-11-01T09:43:32.622Z,1009.20
2022-11-01T09:44:32.580Z,1009.20
2022-11-01T09:45:32.571Z,1009.18
2022-11-01T09:46:32.573Z,1009.18
2022-11-01T09:47:32.551Z,1009.20
2022-11-01T09:48:32.540Z,1009.21
2022-11-01T09:49:32.527Z,1009.20
2022-11-01T09:50:32.514Z,1009.19
2022-11-01T09:51:32.501Z,1009.21
2022-11-01T09:52:32.494Z,1009.27
2022-11-01T09:53:32.488Z,1009.24
2022-11-01T09:54:32.465Z,1009.32
2022-11-01T09:55:32.453Z,1009.35
2022-11-01T09:56:32.438Z,1009.32
2022-11-01T09:57:32.430Z,1009.28
2022-11-01T09:58:32.466Z,1009.24
2022-11-01T09:59:32.424Z,1009.33
2022-11-01T10:00:32.401Z,1009.22
2022-11-01T10:01:32.566Z,1009.26
2022-11-01T10:02:32.372Z,1009.23
2022-11-01T10:03:32.384Z,1009.21
2022-11-01T10:04:32.356Z,1009.23
2022-11-01T10:05:32.353Z,1009.28
2022-11-01T10:06:32.342Z,1009.34
2022-11-01T10:07:32.329Z,1009.27
2022-11-01T10:08:32.353Z,1009.25
2022-11-01T10:09:32.318Z,1009.23
2022-11-01T10:10:33.934Z,1009.19
2022-11-01T10:11:32.276Z,1009.22
2022-11-01T10:12:32.269Z,1009.21
2022-11-01T10:13:32.265Z,1009.25
2022-11-01T10:14:32.268Z,1009.20
2022-11-01T10:15:32.233Z,1009.20
2022-11-01T10:16:32.308Z,1009.16
2022-11-01T10:17:32.213Z,1009.16
2022-11-01T10:18:32.207Z,1009.04
2022-11-01T10:19:32.227Z,1009.03
2022-11-01T10:20:32.177Z,1009.02
2022-11-01T10:21:32.182Z,1009.13
2022-11-01T10:22:32.167Z,1009.09
2022-11-01T10:23:32.143Z,1009.07
2022-11-01T10:24:32.160Z,1009.08
2022-11-01T10:25:32.130Z,1009.12
2022-11-01T10:26:32.189Z,1009.14
2022-11-01T10:27:36.202Z,1009.15
2022-11-01T10:28:32.102Z,1009.16
2022-11-01T10:29:32.080Z,1009.16
2022-11-01T10:30:32.076Z,1009.14
2022-11-01T10:31:32.094Z,1009.18
2022-11-01T10:32:32.047Z,1009.21
2022-11-01T10:33:32.042Z,1009.25
2022-11-01T10:34:35.807Z,1009.28
2022-11-01T10:35:32.029Z,1009.35
2022-11-01T10:36:32.128Z,1009.44
2022-11-01T10:37:31.989Z,1009.48
2022-11-01T10:38:49.973Z,1009.38
2022-11-01T10:40:31.986Z,1009.41
2022-11-01T10:41:31.963Z,1009.36
2022-11-01T10:42:31.942Z,1009.37
2022-11-01T10:43:31.942Z,1009.40
2022-11-01T10:44:31.959Z,1009.41
2022-11-01T10:45:31.911Z,1009.48
2022-11-01T10:46:31.973Z,1009.54
2022-11-01T10:47:31.895Z,1009.53
2022-11-01T10:48:31.875Z,1009.52
2022-11-01T10:49:52.919Z,1009.54
2022-11-01T10:50:31.870Z,1009.55
2022-11-01T10:51:31.849Z,1009.54
2022-11-01T10:52:31.826Z,1009.51
2022-11-01T10:53:31.819Z,1009.52
2022-11-01T10:54:31.816Z,1009.48
2022-11-01T10:55:31.819Z,1009.40
2022-11-01T10:56:31.884Z,1009.37
2022-11-01T10:57:31.783Z,1009.32
2022-11-01T10:58:31.762Z,1009.32
2022-11-01T10:59:31.751Z,1009.32
2022-11-01T11:00:31.790Z,1009.34
2022-11-01T11:01:31.966Z,1009.31
2022-11-01T11:02:31.769Z,1009.31
2022-11-01T11:03:31.701Z,1009.30
2022-11-01T11:04:31.728Z,1009.29
2022-11-01T11:05:31.696Z,1009.23
2022-11-01T11:06:31.683Z,1009.28
2022-11-01T11:07:31.682Z,1009.30
2022-11-01T11:08:31.658Z,1009.31
2022-11-01T11:09:31.641Z,1009.32
2022-11-01T11:10:31.645Z,1009.32
2022-11-01T11:11:31.641Z,1009.32
2022-11-01T11:12:31.608Z,1009.31
2022-11-01T11:13:31.601Z,1009.30
2022-11-01T11:14:31.640Z,1009.40
2022-11-01T11:15:35.398Z,1009.40
2022-11-01T11:16:31.562Z,1009.41
2022-11-01T11:17:31.571Z,1009.49
2022-11-01T11:18:31.550Z,1009.52
2022-11-01T11:19:31.528Z,1009.53
2022-11-01T11:20:31.604Z,1009.51
2022-11-01T11:21:31.516Z,1009.51
2022-11-01T11:22:31.498Z,1009.53
2022-11-01T11:23:31.494Z,1009.56
2022-11-01T11:24:31.477Z,1009.56
2022-11-01T11:25:31.464Z,1009.57
2022-11-01T11:26:36.153Z,1009.68
2022-11-01T11:27:31.450Z,1009.66
2022-11-01T11:28:31.467Z,1009.69
2022-11-01T11:29:31.421Z,1009.71
2022-11-01T11:30:31.430Z,1009.73
2022-11-01T11:31:31.410Z,1009.72
2022-11-01T11:32:31.390Z,1009.70
2022-11-01T11:33:31.381Z,1009.71
2022-11-01T11:34:31.369Z,1009.65
2022-11-01T11:35:31.361Z,1009.68
2022-11-01T11:36:31.358Z,1009.69
2022-11-01T11:37:31.354Z,1009.69
2022-11-01T11:38:31.350Z,1009.65
2022-11-01T11:39:31.317Z,1009.64
2022-11-01T11:40:31.301Z,1009.67
2022-11-01T11:41:31.289Z,1009.65
2022-11-01T11:42:31.328Z,1009.71
2022-11-01T11:43:31.271Z,1009.69
2022-11-01T11:44:31.264Z,1009.74
2022-11-01T11:45:31.252Z,1009.77
2022-11-01T11:46:31.244Z,1009.76
2022-11-01T11:47:31.237Z,1009.75
2022-11-01T11:48:31.226Z,1009.74
2022-11-01T11:49:31.211Z,1009.72
2022-11-01T11:50:31.202Z,1009.74
2022-11-01T11:51:31.187Z,1009.71
2022-11-01T11:52:36.858Z,1009.68
2022-11-01T11:53:31.181Z,1009.69
2022-11-01T11:54:31.161Z,1009.68
2022-11-01T11:55:31.136Z,1009.63
2022-11-01T11:56:31.140Z,1009.62
2022-11-01T11:57:31.122Z,1009.63
2022-11-01T11:58:31.127Z,1009.65
2022-11-01T11:59:31.099Z,1009.65
2022-11-01T12:00:31.092Z,1009.62
2022-11-01T12:01:31.146Z,1009.62
2022-11-01T12:02:31.117Z,1009.64
2022-11-01T12:03:31.095Z,1009.64
2022-11-01T12:04:31.097Z,1009.65
2022-11-01T12:05:31.035Z,1009.68
2022-11-01T12:06:31.034Z,1009.74
2022-11-01T12:07:31.026Z,1009.76
2022-11-01T12:08:31.004Z,1009.76
2022-11-01T12:09:30.998Z,1009.75